Time;durP1;ratioP1;P1;durP2;ratioP2;P2;SDS_P1;SDS_P2;PMS_P1;PMS_P2;Temp;Humidity;BMP_temperature;BMP_pressure;BME280_temperature;BME280_humidity;BME280_pressure;Samples;Min_cycle;Max_cycle;Signal;HPM_P1;HPM_P2
2023/12/22 00:02:16;;;;;;;13.80;8.80;;;23.90;57.10;;;;;;218460;1270;25375;-54
2023/12/22 00:07:21;;;;;;;14.90;8.30;;;23.90;57.20;;;;;;218846;1285;22551;-55
2023/12/22 00:12:26;;;;;;;11.40;7.50;;;24.00;56.80;;;;;;219195;1267;22537;-54
2023/12/22 00:17:30;;;;;;;10.20;7.30;;;23.90;57.10;;;;;;219066;1285;25363;-54
2023/12/22 00:22:35;;;;;;;13.10;7.80;;;23.90;57.20;;;;;;219173;1282;22687;-56
2023/12/22 00:27:40;;;;;;;15.40;7.40;;;23.90;57.00;;;;;;219133;1288;22550;-54
2023/12/22 00:32:44;;;;;;;11.00;7.50;;;23.90;56.90;;;;;;218977;1288;22536;-54
2023/12/22 00:37:48;;;;;;;11.00;7.30;;;23.80;57.00;;;;;;218893;1283;25412;-54
2023/12/22 00:42:53;;;;;;;10.30;6.70;;;23.70;56.90;;;;;;219745;1282;26140;-56
2023/12/22 00:47:58;;;;;;;11.10;7.10;;;23.70;56.90;;;;;;219141;1273;22552;-54
2023/12/22 00:53:03;;;;;;;10.50;6.70;;;23.60;57.40;;;;;;218864;1283;24272;-55
2023/12/22 00:58:08;;;;;;;7.90;6.00;;;23.50;57.60;;;;;;219161;1286;22545;-56
2023/12/22 01:03:12;;;;;;;10.30;6.40;;;23.40;57.30;;;;;;218915;1282;23028;-54
2023/12/22 01:08:17;;;;;;;9.50;5.90;;;23.40;57.80;;;;;;219086;1282;22558;-55
2023/12/22 01:13:22;;;;;;;9.70;6.00;;;23.40;57.90;;;;;;218883;1283;22552;-55
2023/12/22 01:18:29;;;;;;;10.90;6.60;;;23.50;58.00;;;;;;219002;1286;25309;-55
2023/12/22 01:23:34;;;;;;;8.30;6.00;;;23.60;57.20;;;;;;219056;1286;23503;-55
2023/12/22 01:28:39;;;;;;;7.80;5.30;;;23.60;57.20;;;;;;218982;1284;22558;-56
2023/12/22 01:33:45;;;;;;;7.50;5.40;;;23.60;57.20;;;;;;219085;1280;25359;-55
2023/12/22 01:38:50;;;;;;;7.80;5.10;;;23.70;56.70;;;;;;219065;1276;22567;-54
2023/12/22 01:43:56;;;;;;;5.90;4.50;;;23.80;56.60;;;;;;219371;1285;24294;-56
2023/12/22 01:49:02;;;;;;;6.30;5.10;;;23.70;56.80;;;;;;219230;1286;25088;-53
2023/12/22 01:54:08;;;;;;;7.10;4.80;;;23.70;57.00;;;;;;218756;1288;22682;-56
2023/12/22 01:59:12;;;;;;;7.00;5.30;;;23.70;56.50;;;;;;219152;1288;24195;-56
2023/12/22 02:04:17;;;;;;;6.70;4.40;;;23.70;56.50;;;;;;219165;1273;22665;-55
2023/12/22 02:09:22;;;;;;;7.90;5.00;;;23.60;56.60;;;;;;219312;1287;22638;-56
2023/12/22 02:14:27;;;;;;;8.40;5.10;;;23.60;56.60;;;;;;219391;1285;22668;-54
2023/12/22 02:19:46;;;;;;;5.70;4.60;;;23.50;56.50;;;;;;219206;1282;22820;-55
2023/12/22 02:24:50;;;;;;;5.50;4.00;;;23.50;56.60;;;;;;219150;1286;22529;-52
2023/12/22 02:30:07;;;;;;;5.30;4.70;;;23.40;57.00;;;;;;219204;1288;22536;-55
2023/12/22 02:35:17;;;;;;;6.40;4.40;;;23.40;56.90;;;;;;218702;1276;22733;-54
2023/12/22 02:40:23;;;;;;;6.40;4.20;;;23.70;56.90;;;;;;218703;1280;24280;-53
2023/12/22 02:45:30;;;;;;;5.60;4.40;;;23.90;56.30;;;;;;219446;1282;22584;-54
2023/12/22 02:50:35;;;;;;;4.70;3.60;;;24.00;56.00;;;;;;219880;1280;22552;-59
2023/12/22 02:55:39;;;;;;;8.20;4.10;;;24.00;55.30;;;;;;219060;1283;24292;-55
2023/12/22 03:00:44;;;;;;;6.40;4.00;;;24.00;55.20;;;;;;219073;1283;25356;-55
2023/12/22 03:05:49;;;;;;;6.80;4.00;;;24.00;55.40;;;;;;219362;1283;22546;-55
2023/12/22 03:10:53;;;;;;;5.20;4.00;;;23.90;56.00;;;;;;219448;1270;25369;-54
2023/12/22 03:15:58;;;;;;;4.90;3.30;;;23.80;55.60;;;;;;219332;1277;22549;-55
2023/12/22 03:21:03;;;;;;;4.60;3.70;;;23.90;55.50;;;;;;219186;1283;22595;-56
2023/12/22 03:26:08;;;;;;;4.90;3.50;;;23.90;55.70;;;;;;219210;1280;25603;-53
2023/12/22 03:31:12;;;;;;;4.80;3.40;;;23.80;55.50;;;;;;219025;1283;22634;-56
2023/12/22 03:36:17;;;;;;;4.40;3.10;;;23.80;55.60;;;;;;219238;1287;24253;-56
2023/12/22 03:41:21;;;;;;;3.90;3.60;;;23.70;55.50;;;;;;219217;1280;25363;-54
2023/12/22 03:46:26;;;;;;;3.70;3.10;;;23.60;55.80;;;;;;219117;1273;22541;-54
2023/12/22 03:51:31;;;;;;;3.30;3.00;;;23.50;55.90;;;;;;219052;1273;23392;-55
2023/12/22 03:56:36;;;;;;;3.40;2.50;;;23.40;56.30;;;;;;219046;1283;22535;-55
2023/12/22 04:01:41;;;;;;;4.30;3.00;;;23.40;56.70;;;;;;219305;1264;24342;-54
2023/12/22 04:06:46;;;;;;;3.30;2.90;;;23.30;56.40;;;;;;219407;1280;22533;-55
2023/12/22 04:11:51;;;;;;;4.10;2.90;;;23.40;56.60;;;;;;219130;1287;25335;-55
2023/12/22 04:16:56;;;;;;;6.20;3.10;;;23.50;56.90;;;;;;219428;1276;22559;-56
2023/12/22 04:22:01;;;;;;;3.90;2.80;;;23.70;56.20;;;;;;219114;1287;22688;-53
2023/12/22 04:27:05;;;;;;;2.90;2.60;;;23.80;55.90;;;;;;219255;1283;22717;-55
2023/12/22 04:32:10;;;;;;;4.20;2.80;;;23.90;55.60;;;;;;219135;1281;24285;-53
2023/12/22 04:37:15;;;;;;;3.40;2.80;;;23.90;55.50;;;;;;219387;1277;22556;-52
2023/12/22 04:42:20;;;;;;;2.40;2.20;;;23.90;55.60;;;;;;219119;1286;25415;-55
2023/12/22 04:47:24;;;;;;;3.30;2.90;;;23.90;55.60;;;;;;219186;1283;22561;-54
2023/12/22 04:52:29;;;;;;;3.40;2.60;;;23.90;55.60;;;;;;219218;1288;22548;-54
2023/12/22 04:57:34;;;;;;;2.50;2.30;;;23.90;55.10;;;;;;219072;1283;22662;-55
2023/12/22 05:02:38;;;;;;;3.40;2.50;;;23.90;55.30;;;;;;219175;1288;23958;-54
2023/12/22 05:07:43;;;;;;;2.70;2.00;;;23.80;55.10;;;;;;219016;1280;24195;-54
2023/12/22 05:12:47;;;;;;;3.10;2.30;;;23.70;55.10;;;;;;219553;1282;22809;-52
2023/12/22 05:17:52;;;;;;;2.80;2.00;;;23.70;55.10;;;;;;219242;1282;24322;-55
2023/12/22 05:22:58;;;;;;;2.70;2.00;;;23.60;55.00;;;;;;219265;1283;22592;-56
2023/12/22 05:28:03;;;;;;;2.10;2.00;;;23.50;55.40;;;;;;219233;1279;25554;-55
2023/12/22 05:33:07;;;;;;;2.80;2.30;;;23.40;55.50;;;;;;219193;1283;22529;-55
2023/12/22 05:38:12;;;;;;;2.80;2.10;;;23.40;55.50;;;;;;219025;1276;22798;-55
2023/12/22 05:43:16;;;;;;;2.20;1.80;;;23.30;55.80;;;;;;219298;1283;23908;-52
2023/12/22 05:48:21;;;;;;;2.90;2.30;;;23.10;56.10;;;;;;219143;1286;22533;-56
2023/12/22 05:53:26;;;;;;;3.40;2.10;;;23.10;56.30;;;;;;219071;1283;25387;-55
2023/12/22 05:58:30;;;;;;;3.40;2.20;;;23.00;56.40;;;;;;219111;1286;24256;-54
2023/12/22 06:03:35;;;;;;;2.50;2.30;;;23.00;56.60;;;;;;219253;1283;22546;-54
2023/12/22 06:08:40;;;;;;;2.70;1.70;;;22.90;56.70;;;;;;219172;1278;25349;-55
2023/12/22 06:13:45;;;;;;;3.20;1.80;;;22.90;56.70;;;;;;218913;1286;24378;-56
2023/12/22 06:18:49;;;;;;;2.50;1.90;;;22.80;56.90;;;;;;219273;1281;23286;-56
2023/12/22 06:23:54;;;;;;;2.60;1.40;;;22.80;56.80;;;;;;218697;1286;178593;-55
2023/12/22 06:28:58;;;;;;;2.50;1.80;;;22.80;57.50;;;;;;219005;1279;24281;-55
2023/12/22 06:34:03;;;;;;;2.60;2.20;;;23.00;57.00;;;;;;219108;1273;24232;-55
2023/12/22 06:39:08;;;;;;;5.80;1.80;;;23.30;56.70;;;;;;220479;1286;22684;-56
2023/12/22 06:44:12;;;;;;;2.80;1.60;;;23.60;55.90;;;;;;218835;1280;22572;-55
2023/12/22 06:49:17;;;;;;;4.80;2.10;;;23.80;55.40;;;;;;227097;1282;22178;-52
2023/12/22 06:54:21;;;;;;;2.50;1.70;;;24.10;54.40;;;;;;223173;1282;23162;-55
2023/12/22 06:59:26;;;;;;;3.90;2.20;;;24.10;53.80;;;;;;219254;1284;22730;-57
2023/12/22 07:05:04;;;;;;;2.30;2.00;;;24.10;53.90;;;;;;219044;1286;22533;-54
2023/12/22 07:10:11;;;;;;;2.20;1.40;;;24.00;54.30;;;;;;219310;1283;22538;-56
2023/12/22 07:15:15;;;;;;;1.60;1.40;;;23.90;54.60;;;;;;219065;1276;22566;-54
2023/12/22 07:20:20;;;;;;;1.60;1.40;;;23.70;54.10;;;;;;218971;1283;24208;-55
2023/12/22 07:25:24;;;;;;;2.20;1.50;;;23.70;54.40;;;;;;219016;1281;24295;-54
2023/12/22 07:30:29;;;;;;;2.50;1.70;;;23.30;54.70;;;;;;219259;1273;23308;-55
2023/12/22 07:35:34;;;;;;;2.00;1.40;;;23.10;55.30;;;;;;219264;1283;24371;-48
2023/12/22 07:40:38;;;;;;;1.30;1.10;;;23.10;55.70;;;;;;219020;1281;23751;-50
2023/12/22 07:45:42;;;;;;;2.30;1.20;;;23.10;55.50;;;;;;219451;1273;23949;-48
2023/12/22 07:50:47;;;;;;;2.10;1.30;;;23.10;55.60;;;;;;219877;1276;22576;-49
2023/12/22 07:55:52;;;;;;;1.80;1.30;;;23.00;56.30;;;;;;223554;1276;22543;-52
2023/12/22 08:00:56;;;;;;;1.50;1.40;;;23.00;55.80;;;;;;219099;1283;26690;-49
2023/12/22 08:06:04;;;;;;;1.60;1.10;;;22.90;56.20;;;;;;218684;1287;22542;-49
2023/12/22 08:11:13;;;;;;;1.80;1.30;;;22.90;56.20;;;;;;218626;1289;22556;-53
2023/12/22 08:16:21;;;;;;;1.60;1.50;;;23.10;56.00;;;;;;218217;1285;22554;-48
2023/12/22 08:21:26;;;;;;;1.40;1.10;;;23.30;55.40;;;;;;218460;1280;24205;-56
2023/12/22 08:26:46;;;;;;;4.80;1.90;;;23.60;54.70;;;;;;219184;1278;24259;-55
2023/12/22 08:31:52;;;;;;;3.40;1.40;;;23.70;54.80;;;;;;219082;1283;25444;-56
2023/12/22 08:36:56;;;;;;;1.70;1.00;;;23.80;54.50;;;;;;219200;1287;22543;-54
2023/12/22 08:42:01;;;;;;;4.00;1.60;;;23.90;54.70;;;;;;219218;1276;23380;-54
2023/12/22 08:47:05;;;;;;;2.40;1.50;;;23.90;54.20;;;;;;219166;1283;23927;-56
2023/12/22 08:52:10;;;;;;;1.50;1.00;;;23.80;54.60;;;;;;218997;1282;24377;-54
2023/12/22 08:57:14;;;;;;;2.40;1.30;;;23.50;55.20;;;;;;218963;1286;24233;-56
2023/12/22 09:02:19;;;;;;;5.70;1.80;;;23.50;55.30;;;;;;219050;1282;24301;-53
2023/12/22 09:07:24;;;;;;;3.20;1.30;;;23.30;56.10;;;;;;219033;1270;24288;-51
2023/12/22 09:12:30;;;;;;;7.70;1.80;;;23.10;56.50;;;;;;219189;1286;22595;-54
2023/12/22 09:17:34;;;;;;;4.10;1.80;;;23.10;58.60;;;;;;219003;1283;23084;-55
2023/12/22 09:22:41;;;;;;;5.60;1.90;;;23.00;58.00;;;;;;219040;1286;22540;-49
2023/12/22 09:27:45;;;;;;;3.80;1.00;;;23.00;58.60;;;;;;219134;1281;22801;-55
2023/12/22 09:32:49;;;;;;;4.90;1.30;;;23.00;58.90;;;;;;218825;1282;25382;-54
2023/12/22 09:37:54;;;;;;;4.80;1.20;;;23.00;58.80;;;;;;218925;1286;24256;-57
2023/12/22 09:42:59;;;;;;;4.90;1.40;;;23.00;58.60;;;;;;219234;1286;23885;-55
2023/12/22 09:48:06;;;;;;;3.30;1.20;;;22.90;58.10;;;;;;219305;1283;22570;-56
2023/12/22 09:53:14;;;;;;;2.70;1.20;;;22.80;58.50;;;;;;219067;1284;25121;-56
2023/12/22 09:58:19;;;;;;;6.20;1.40;;;22.70;58.60;;;;;;218940;1280;24260;-53
2023/12/22 10:03:26;;;;;;;4.10;1.10;;;22.90;58.20;;;;;;218677;1282;25421;-53
2023/12/22 10:08:30;;;;;;;2.50;1.00;;;22.70;58.60;;;;;;219094;1286;25271;-55
2023/12/22 10:13:40;;;;;;;1.50;1.30;;;22.60;58.30;;;;;;218893;1287;24202;-60
2023/12/22 10:18:46;;;;;;;2.20;1.20;;;22.60;58.30;;;;;;218784;1283;23928;-56
2023/12/22 10:23:54;;;;;;;6.00;1.50;;;22.80;57.50;;;;;;218871;1280;25176;-55
2023/12/22 10:28:58;;;;;;;2.40;1.10;;;23.30;56.50;;;;;;218903;1264;24227;-56
2023/12/22 10:34:04;;;;;;;3.90;1.40;;;23.60;55.70;;;;;;219049;1282;23120;-56
2023/12/22 10:39:09;;;;;;;26.00;12.00;;;23.80;55.10;;;;;;218789;1273;22539;-56
2023/12/22 10:44:14;;;;;;;56.30;26.50;;;23.90;55.10;;;;;;219071;1276;22820;-54
2023/12/22 10:49:19;;;;;;;83.30;42.20;;;23.90;54.60;;;;;;219061;1280;25460;-57
2023/12/22 10:54:24;;;;;;;82.70;39.20;;;23.90;54.70;;;;;;218958;1276;25313;-56
2023/12/22 10:59:33;;;;;;;97.10;40.60;;;23.80;54.70;;;;;;219100;1285;22659;-54
2023/12/22 11:04:39;;;;;;;83.70;37.80;;;23.80;54.80;;;;;;219146;1283;24159;-56
2023/12/22 11:09:47;;;;;;;76.80;36.70;;;23.60;55.10;;;;;;219005;1280;23917;-60
2023/12/22 11:14:53;;;;;;;69.90;34.60;;;23.50;55.30;;;;;;218806;1288;24755;-54
2023/12/22 11:19:58;;;;;;;63.90;33.00;;;23.50;55.10;;;;;;219087;1285;22538;-57
2023/12/22 11:25:06;;;;;;;79.40;35.80;;;23.40;54.90;;;;;;218930;1283;24270;-51
2023/12/22 11:30:12;;;;;;;107.20;54.80;;;23.30;55.50;;;;;;218809;1288;24238;-56
2023/12/22 11:35:17;;;;;;;167.10;83.40;;;23.30;55.60;;;;;;218994;1283;23261;-54
2023/12/22 11:40:21;;;;;;;206.60;95.10;;;23.20;55.70;;;;;;218850;1283;25145;-57
2023/12/22 11:45:30;;;;;;;171.00;87.00;;;23.10;55.80;;;;;;218990;1267;26570;-54
2023/12/22 11:50:35;;;;;;;148.30;73.10;;;23.10;56.00;;;;;;219065;1271;22540;-56
2023/12/22 11:56:05;;;;;;;146.00;69.30;;;23.00;56.20;;;;;;219009;1271;22600;-57
2023/12/22 12:01:13;;;;;;;131.20;63.50;;;23.00;56.70;;;;;;218804;1285;24225;-61
2023/12/22 12:06:27;;;;;;;126.90;63.20;;;22.90;56.40;;;;;;219047;1279;22617;-55
2023/12/22 12:12:00;;;;;;;124.70;62.70;;;22.90;56.50;;;;;;219047;1286;24269;-58
2023/12/22 12:17:09;;;;;;;121.90;56.40;;;22.90;56.50;;;;;;219031;1283;25735;-55
2023/12/22 12:22:14;;;;;;;103.70;52.30;;;22.90;56.20;;;;;;218518;1286;24263;-54
2023/12/22 12:27:21;;;;;;;108.20;53.80;;;23.10;55.80;;;;;;218678;1283;22684;-49
2023/12/22 12:32:26;;;;;;;112.70;51.40;;;23.40;55.10;;;;;;218878;1274;22595;-51
2023/12/22 12:37:31;;;;;;;94.70;49.00;;;23.70;54.20;;;;;;218963;1283;26335;-49
2023/12/22 12:42:37;;;;;;;89.20;48.60;;;24.00;53.50;;;;;;219791;1280;24227;-49
2023/12/22 12:47:42;;;;;;;94.60;48.50;;;24.10;53.30;;;;;;219364;1281;24269;-44
2023/12/22 12:52:47;;;;;;;91.50;47.00;;;24.10;53.30;;;;;;219370;1284;23903;-49
2023/12/22 12:57:52;;;;;;;92.20;44.90;;;23.90;53.60;;;;;;219080;1280;24219;-51
2023/12/22 13:03:02;;;;;;;81.30;42.80;;;23.80;53.70;;;;;;219553;1284;22522;-49
2023/12/22 13:08:12;;;;;;;87.60;43.10;;;23.70;54.40;;;;;;219207;1275;25570;-48
2023/12/22 13:13:16;;;;;;;73.70;40.40;;;23.60;53.90;;;;;;219136;1287;25627;-48
2023/12/22 13:18:22;;;;;;;80.50;41.40;;;23.50;54.10;;;;;;219058;1273;25422;-50
2023/12/22 13:23:26;;;;;;;74.10;40.60;;;23.40;54.30;;;;;;218882;1282;24289;-51
2023/12/22 13:28:34;;;;;;;72.80;38.30;;;23.50;55.00;;;;;;218960;1286;22556;-53
2023/12/22 13:33:39;;;;;;;66.40;37.30;;;23.50;56.10;;;;;;219062;1286;24253;-52
2023/12/22 13:38:47;;;;;;;60.60;35.20;;;23.30;56.40;;;;;;219167;1282;25464;-54
2023/12/22 13:43:52;;;;;;;68.10;36.00;;;23.30;56.30;;;;;;219125;1283;23822;-52
2023/12/22 13:48:57;;;;;;;59.70;33.00;;;23.30;56.20;;;;;;219177;1288;22619;-50
2023/12/22 13:54:02;;;;;;;58.70;34.60;;;23.20;56.10;;;;;;219152;1284;26669;-51
2023/12/22 13:59:07;;;;;;;55.40;33.40;;;23.10;55.80;;;;;;219257;1283;22569;-51
2023/12/22 14:04:17;;;;;;;67.70;32.60;;;23.00;56.60;;;;;;219239;1274;24314;-52
2023/12/22 14:09:24;;;;;;;60.20;31.10;;;22.90;56.30;;;;;;219170;1279;22785;-52
2023/12/22 14:14:31;;;;;;;56.30;30.80;;;22.90;56.10;;;;;;219326;1283;25527;-53
2023/12/22 14:19:38;;;;;;;46.80;27.80;;;22.90;56.20;;;;;;219302;1287;22547;-49
2023/12/22 14:24:48;;;;;;;50.10;27.40;;;23.00;56.30;;;;;;219327;1273;25372;-50
2023/12/22 14:29:53;;;;;;;42.70;26.30;;;23.20;55.50;;;;;;219213;1276;22596;-51
2023/12/22 14:34:57;;;;;;;51.30;27.10;;;23.40;55.00;;;;;;219374;1274;22544;-51
2023/12/22 14:40:02;;;;;;;43.90;24.90;;;23.60;54.50;;;;;;219163;1287;22806;-48
2023/12/22 14:45:07;;;;;;;42.80;24.50;;;23.60;54.50;;;;;;218972;1283;22537;-49
2023/12/22 14:50:15;;;;;;;40.20;24.90;;;23.70;54.40;;;;;;219220;1283;23958;-53
2023/12/22 14:55:20;;;;;;;50.20;25.70;;;23.60;54.50;;;;;;219356;1280;22545;-53
2023/12/22 15:00:25;;;;;;;41.80;24.40;;;23.70;55.20;;;;;;219363;1281;22659;-49
2023/12/22 15:05:30;;;;;;;41.20;23.50;;;23.70;56.30;;;;;;219264;1283;24275;-48
2023/12/22 15:10:40;;;;;;;39.70;22.70;;;23.50;56.20;;;;;;219220;1288;25516;-51
2023/12/22 15:15:44;;;;;;;40.10;21.40;;;23.50;55.90;;;;;;219021;1273;25447;-51
2023/12/22 15:20:51;;;;;;;35.60;18.30;;;23.50;55.60;;;;;;219215;1287;22672;-50
2023/12/22 15:25:57;;;;;;;36.60;20.10;;;23.40;55.30;;;;;;218935;1283;26906;-54
2023/12/22 15:31:11;;;;;;;34.60;18.00;;;23.40;54.50;;;;;;219173;1286;22668;-45
2023/12/22 15:36:24;;;;;;;28.80;17.80;;;23.40;54.70;;;;;;219072;1283;24303;-51
2023/12/22 15:41:31;;;;;;;30.60;17.10;;;23.40;54.30;;;;;;218970;1280;26679;-49
2023/12/22 15:46:35;;;;;;;29.00;17.30;;;23.30;54.30;;;;;;219062;1285;25300;-50
2023/12/22 15:51:41;;;;;;;30.70;18.60;;;23.10;55.10;;;;;;219101;1286;22547;-47
2023/12/22 15:56:45;;;;;;;26.00;16.50;;;23.00;55.00;;;;;;219541;1271;23920;-48
2023/12/22 16:01:50;;;;;;;27.50;16.70;;;23.00;55.10;;;;;;219236;1282;23894;-52
2023/12/22 16:06:54;;;;;;;29.30;14.70;;;22.90;55.20;;;;;;218883;1279;24295;-50
2023/12/22 16:11:58;;;;;;;23.30;14.80;;;22.90;55.30;;;;;;219207;1283;22552;-50
2023/12/22 16:17:04;;;;;;;24.20;15.10;;;22.90;55.00;;;;;;219197;1282;26685;-50
2023/12/22 16:22:10;;;;;;;25.20;14.10;;;22.90;55.00;;;;;;219166;1273;22541;-51
2023/12/22 16:27:16;;;;;;;20.70;12.80;;;23.20;54.50;;;;;;218995;1286;22560;-53
2023/12/22 16:32:21;;;;;;;31.30;13.70;;;23.40;53.70;;;;;;219181;1283;24271;-51
2023/12/22 16:37:25;;;;;;;21.30;13.50;;;23.70;52.80;;;;;;219271;1283;22545;-48
2023/12/22 16:42:30;;;;;;;18.20;11.70;;;23.90;53.00;;;;;;219048;1283;22558;-51
2023/12/22 16:47:34;;;;;;;19.40;11.50;;;23.80;52.70;;;;;;219106;1286;25270;-57
2023/12/22 16:52:39;;;;;;;18.60;11.60;;;23.80;52.70;;;;;;219259;1276;25286;-51
2023/12/22 16:57:44;;;;;;;17.60;11.60;;;23.70;52.90;;;;;;218994;1279;24393;-48
2023/12/22 17:02:49;;;;;;;18.30;11.40;;;23.70;52.80;;;;;;219411;1267;22674;-54
2023/12/22 17:07:54;;;;;;;20.80;10.60;;;23.60;53.20;;;;;;218313;1286;22549;-54
2023/12/22 17:13:01;;;;;;;16.60;10.00;;;23.50;53.10;;;;;;218561;1286;24342;-54
2023/12/22 17:18:05;;;;;;;20.70;11.40;;;23.50;53.00;;;;;;218542;1286;23781;-51
2023/12/22 17:23:10;;;;;;;17.90;9.30;;;23.40;53.00;;;;;;217794;1287;22679;-48
2023/12/22 17:28:15;;;;;;;19.60;10.50;;;23.40;53.10;;;;;;218515;1283;22764;-49
2023/12/22 17:33:20;;;;;;;17.40;9.40;;;23.30;53.50;;;;;;218909;1288;25351;-50
2023/12/22 17:38:24;;;;;;;17.10;9.60;;;23.30;53.30;;;;;;219208;1279;25433;-51
2023/12/22 17:43:29;;;;;;;11.40;8.70;;;23.20;53.30;;;;;;219333;1283;23230;-49
2023/12/22 17:48:33;;;;;;;16.10;8.60;;;23.30;53.60;;;;;;218987;1280;24413;-50
2023/12/22 17:53:38;;;;;;;14.50;8.90;;;23.10;53.10;;;;;;219299;1280;24294;-49
2023/12/22 17:58:44;;;;;;;19.40;8.10;;;23.10;53.20;;;;;;219263;1275;25699;-52
2023/12/22 18:03:53;;;;;;;12.50;7.90;;;23.00;53.50;;;;;;219082;1283;24258;-49
2023/12/22 18:08:58;;;;;;;11.50;7.70;;;22.90;53.50;;;;;;219368;1280;24033;-55
2023/12/22 18:14:02;;;;;;;15.70;7.70;;;22.70;53.80;;;;;;219264;1287;24271;-53
2023/12/22 18:19:08;;;;;;;11.50;7.00;;;23.00;53.50;;;;;;219353;1282;24263;-55
2023/12/22 18:24:13;;;;;;;11.50;7.00;;;23.30;52.80;;;;;;219082;1285;236175;-48
2023/12/22 18:29:17;;;;;;;10.20;6.70;;;23.60;52.10;;;;;;219217;1280;24506;-52
2023/12/22 18:34:22;;;;;;;12.30;6.20;;;23.70;51.80;;;;;;219259;1280;24371;-53
2023/12/22 18:39:26;;;;;;;12.10;7.10;;;23.80;51.60;;;;;;219145;1280;22572;-51
2023/12/22 18:44:31;;;;;;;9.00;6.00;;;23.80;52.10;;;;;;219828;1283;25510;-54
2023/12/22 18:49:35;;;;;;;9.90;5.90;;;23.70;51.70;;;;;;219012;1280;22543;-53
2023/12/22 18:54:42;;;;;;;22.70;6.30;;;23.70;52.20;;;;;;219185;1283;22670;-57
2023/12/22 18:59:49;;;;;;;9.60;5.80;;;23.60;52.10;;;;;;219208;1283;25258;-55
2023/12/22 19:04:56;;;;;;;11.50;5.50;;;23.50;52.40;;;;;;219006;1276;24253;-55
2023/12/22 19:10:02;;;;;;;7.10;5.00;;;23.40;52.20;;;;;;218379;1286;22984;-55
2023/12/22 19:15:08;;;;;;;8.20;5.30;;;23.40;52.60;;;;;;219121;1285;22791;-52
2023/12/22 19:20:14;;;;;;;12.50;5.60;;;23.40;52.00;;;;;;218394;1279;24382;-51
2023/12/22 19:25:19;;;;;;;6.60;4.50;;;23.40;51.80;;;;;;218405;1288;22546;-55
2023/12/22 19:30:24;;;;;;;6.20;4.50;;;23.30;51.90;;;;;;219111;1286;22668;-55
2023/12/22 19:35:29;;;;;;;8.10;5.10;;;23.30;51.90;;;;;;219188;1287;24377;-54
2023/12/22 19:40:34;;;;;;;14.70;4.90;;;23.30;52.20;;;;;;219351;1283;25379;-54
2023/12/22 19:45:39;;;;;;;13.90;5.00;;;23.20;52.80;;;;;;219174;1283;24222;-54
2023/12/22 19:50:45;;;;;;;8.70;4.70;;;23.20;53.30;;;;;;219405;1283;26638;-55
2023/12/22 19:55:51;;;;;;;7.00;4.90;;;23.10;53.50;;;;;;217155;1294;22687;-54
2023/12/22 20:00:57;;;;;;;7.80;4.60;;;23.00;53.50;;;;;;218929;1296;25440;-55
2023/12/22 20:06:04;;;;;;;8.40;4.60;;;23.10;53.40;;;;;;217721;1297;22617;-55
2023/12/22 20:11:09;;;;;;;4.40;3.20;;;23.00;53.50;;;;;;216786;1297;24918;-52
2023/12/22 20:16:16;;;;;;;5.90;4.10;;;22.90;53.80;;;;;;217262;1291;25665;-56
2023/12/22 20:21:21;;;;;;;8.00;4.00;;;23.00;53.70;;;;;;217398;1289;25367;-54
2023/12/22 20:26:26;;;;;;;5.60;3.60;;;23.40;52.50;;;;;;218885;1288;22575;-55
2023/12/22 20:31:33;;;;;;;10.30;4.40;;;23.50;52.50;;;;;;219487;1283;22557;-54
2023/12/22 20:36:40;;;;;;;14.10;4.30;;;23.80;52.80;;;;;;219371;1267;24257;-55
2023/12/22 20:41:46;;;;;;;8.40;3.60;;;23.90;53.20;;;;;;219310;1276;25325;-55
2023/12/22 20:46:51;;;;;;;9.40;3.80;;;23.80;52.80;;;;;;219209;1280;24418;-54
2023/12/22 20:51:56;;;;;;;6.80;3.60;;;23.60;53.10;;;;;;218991;1282;27808;-53
2023/12/22 20:57:03;;;;;;;9.00;3.00;;;23.50;53.30;;;;;;219061;1266;24208;-50
2023/12/22 21:02:08;;;;;;;7.00;3.60;;;23.30;53.50;;;;;;219261;1288;22535;-51
2023/12/22 21:07:15;;;;;;;5.10;3.30;;;23.30;54.00;;;;;;219371;1283;25300;-54
2023/12/22 21:12:22;;;;;;;12.90;3.30;;;23.20;53.50;;;;;;219109;1282;22611;-50
2023/12/22 21:17:26;;;;;;;6.20;3.00;;;23.10;54.20;;;;;;219402;1283;23918;-50
2023/12/22 21:22:32;;;;;;;9.70;3.50;;;23.00;54.30;;;;;;219340;1283;25402;-52
2023/12/22 21:27:37;;;;;;;5.20;3.00;;;23.00;54.10;;;;;;219392;1283;22549;-51
2023/12/22 21:32:43;;;;;;;7.80;2.70;;;23.40;52.80;;;;;;219223;1276;22542;-53
2023/12/22 21:37:49;;;;;;;7.20;2.60;;;23.40;50.10;;;;;;219173;1288;22547;-52
2023/12/22 21:42:55;;;;;;;7.50;2.80;;;23.70;50.60;;;;;;219185;1274;24248;-51
2023/12/22 21:48:00;;;;;;;12.80;3.00;;;23.80;50.20;;;;;;219355;1280;24219;-52
2023/12/22 21:53:05;;;;;;;3.20;2.30;;;23.90;50.30;;;;;;219000;1276;25425;-50
2023/12/22 21:58:09;;;;;;;7.10;2.70;;;23.80;50.40;;;;;;219194;1285;22554;-48
2023/12/22 22:03:14;;;;;;;4.60;2.80;;;23.70;50.50;;;;;;219310;1287;22550;-50
2023/12/22 22:08:20;;;;;;;3.80;2.40;;;23.60;52.30;;;;;;219147;1279;22660;-54
2023/12/22 22:13:25;;;;;;;9.50;3.40;;;23.50;52.50;;;;;;219564;1283;25387;-52
2023/12/22 22:18:33;;;;;;;9.50;3.20;;;23.40;52.70;;;;;;219449;1286;24489;-49
2023/12/22 22:23:49;;;;;;;25.30;12.40;;;23.40;52.90;;;;;;219263;1285;22539;-50
2023/12/22 22:29:05;;;;;;;58.70;32.10;;;23.40;52.70;;;;;;219124;1286;22572;-52
2023/12/22 22:34:10;;;;;;;66.40;31.60;;;23.30;53.30;;;;;;219307;1280;22550;-53
2023/12/22 22:39:15;;;;;;;95.00;44.20;;;23.30;53.00;;;;;;219368;1287;25255;-50
2023/12/22 22:44:19;;;;;;;102.90;50.20;;;23.20;53.20;;;;;;219195;1282;26794;-50
2023/12/22 22:49:24;;;;;;;93.10;43.20;;;23.60;52.60;;;;;;219227;1285;22555;-49
2023/12/22 22:54:29;;;;;;;85.40;44.40;;;23.90;52.50;;;;;;219272;1280;24270;-49
2023/12/22 22:59:33;;;;;;;76.10;39.90;;;24.20;51.50;;;;;;219486;1286;24271;-51
2023/12/22 23:04:41;;;;;;;65.20;35.30;;;24.30;51.20;;;;;;219111;1288;25410;-48
2023/12/22 23:09:45;;;;;;;72.40;36.40;;;24.20;50.80;;;;;;219142;1286;25360;-48
2023/12/22 23:14:53;;;;;;;71.20;33.60;;;24.10;51.10;;;;;;219433;1283;22538;-51
2023/12/22 23:19:57;;;;;;;67.90;31.90;;;23.90;51.50;;;;;;219074;1280;24045;-50
2023/12/22 23:25:04;;;;;;;60.60;31.30;;;23.80;51.60;;;;;;219101;1286;25328;-54
2023/12/22 23:30:10;;;;;;;63.60;31.10;;;23.60;51.80;;;;;;219466;1286;22543;-51
2023/12/22 23:35:15;;;;;;;66.80;32.90;;;23.60;57.20;;;;;;219412;1286;23536;-51
2023/12/22 23:40:19;;;;;;;56.30;30.10;;;23.70;56.90;;;;;;219269;1264;25306;-54
2023/12/22 23:45:24;;;;;;;56.80;29.60;;;23.80;56.80;;;;;;219329;1283;22674;-54
2023/12/22 23:50:28;;;;;;;61.20;29.10;;;23.70;56.40;;;;;;219200;1280;22535;-50
2023/12/22 23:55:33;;;;;;;57.20;29.50;;;23.40;55.90;;;;;;219261;1283;25497;-51
